sensor_id;sensor_type;location;lat;lon;timestamp;pressure;altitude;pressure_sealevel;temperature;humidity
20620;BME280;10469;42.720;23.252;2023-04-07T00:01:51;94617.72;;;2.04;100.00
20620;BME280;10469;42.720;23.252;2023-04-07T00:04:17;94600.22;;;2.03;100.00
20620;BME280;10469;42.720;23.252;2023-04-07T00:06:42;94626.78;;;2.16;100.00
20620;BME280;10469;42.720;23.252;2023-04-07T00:09:09;94620.22;;;2.12;100.00
20620;BME280;10469;42.720;23.252;2023-04-07T00:11:37;94616.13;;;2.10;100.00
20620;BME280;10469;42.720;23.252;2023-04-07T00:14:03;94617.31;;;2.07;100.00
20620;BME280;10469;42.720;23.252;2023-04-07T00:16:30;94616.94;;;2.10;100.00
20620;BME280;10469;42.720;23.252;2023-04-07T00:18:55;94604.50;;;2.04;100.00
20620;BME280;10469;42.720;23.252;2023-04-07T00:21:21;94610.03;;;2.09;100.00
20620;BME280;10469;42.720;23.252;2023-04-07T00:23:47;94609.81;;;2.11;100.00
20620;BME280;10469;42.720;23.252;2023-04-07T00:26:13;94619.78;;;2.09;100.00
20620;BME280;10469;42.720;23.252;2023-04-07T00:28:39;94611.41;;;2.05;100.00
20620;BME280;10469;42.720;23.252;2023-04-07T00:31:06;94583.41;;;1.89;100.00
20620;BME280;10469;42.720;23.252;2023-04-07T00:33:32;94608.78;;;2.05;100.00
20620;BME280;10469;42.720;23.252;2023-04-07T00:35:58;94557.63;;;1.70;100.00
20620;BME280;10469;42.720;23.252;2023-04-07T00:38:23;94612.44;;;2.04;100.00
20620;BME280;10469;42.720;23.252;2023-04-07T00:40:49;94605.44;;;1.96;100.00
20620;BME280;10469;42.720;23.252;2023-04-07T00:43:21;94592.84;;;1.98;100.00
20620;BME280;10469;42.720;23.252;2023-04-07T00:45:47;94584.72;;;2.00;100.00
20620;BME280;10469;42.720;23.252;2023-04-07T00:48:13;94606.75;;;2.07;100.00
20620;BME280;10469;42.720;23.252;2023-04-07T00:50:39;94612.47;;;2.11;100.00
20620;BME280;10469;42.720;23.252;2023-04-07T00:53:04;94601.44;;;2.07;100.00
20620;BME280;10469;42.720;23.252;2023-04-07T00:55:31;94612.09;;;2.14;100.00
20620;BME280;10469;42.720;23.252;2023-04-07T00:57:57;94599.13;;;2.19;100.00
20620;BME280;10469;42.720;23.252;2023-04-07T01:00:22;94591.53;;;2.16;100.00
20620;BME280;10469;42.720;23.252;2023-04-07T01:03:17;94602.19;;;2.22;100.00
20620;BME280;10469;42.720;23.252;2023-04-07T01:05:54;94582.81;;;2.15;100.00
20620;BME280;10469;42.720;23.252;2023-04-07T01:08:40;94603.66;;;2.25;100.00
20620;BME280;10469;42.720;23.252;2023-04-07T01:11:12;94597.09;;;2.21;100.00
20620;BME280;10469;42.720;23.252;2023-04-07T01:13:48;94585.31;;;2.23;100.00
20620;BME280;10469;42.720;23.252;2023-04-07T01:16:45;94569.00;;;2.20;100.00
20620;BME280;10469;42.720;23.252;2023-04-07T01:19:38;94588.44;;;2.34;100.00
20620;BME280;10469;42.720;23.252;2023-04-07T01:22:27;94596.63;;;2.39;100.00
20620;BME280;10469;42.720;23.252;2023-04-07T01:30:42;94577.81;;;2.55;97.92
20620;BME280;10469;42.720;23.252;2023-04-07T01:33:09;94586.00;;;2.67;96.39
20620;BME280;10469;42.720;23.252;2023-04-07T01:35:36;94569.13;;;2.68;95.09
20620;BME280;10469;42.720;23.252;2023-04-07T01:38:05;94592.44;;;2.86;93.49
20620;BME280;10469;42.720;23.252;2023-04-07T01:40:33;94576.22;;;2.67;92.44
20620;BME280;10469;42.720;23.252;2023-04-07T01:43:00;94563.19;;;2.66;91.91
20620;BME280;10469;42.720;23.252;2023-04-07T01:45:27;94592.00;;;2.82;91.28
20620;BME280;10469;42.720;23.252;2023-04-07T01:47:54;94583.69;;;2.92;90.97
20620;BME280;10469;42.720;23.252;2023-04-07T01:50:20;94576.94;;;2.83;90.31
20620;BME280;10469;42.720;23.252;2023-04-07T01:52:47;94575.91;;;2.84;90.95
20620;BME280;10469;42.720;23.252;2023-04-07T01:55:13;94578.53;;;2.77;91.16
20620;BME280;10469;42.720;23.252;2023-04-07T01:57:38;94568.91;;;2.69;91.41
20620;BME280;10469;42.720;23.252;2023-04-07T02:00:05;94562.44;;;2.79;92.01
20620;BME280;10469;42.720;23.252;2023-04-07T02:02:35;94570.63;;;2.84;92.04
20620;BME280;10469;42.720;23.252;2023-04-07T02:05:07;94564.28;;;2.85;91.38
20620;BME280;10469;42.720;23.252;2023-04-07T02:07:59;94572.66;;;2.88;90.50
20620;BME280;10469;42.720;23.252;2023-04-07T02:10:27;94546.13;;;2.75;90.37
20620;BME280;10469;42.720;23.252;2023-04-07T02:12:56;94567.81;;;2.92;89.84
20620;BME280;10469;42.720;23.252;2023-04-07T02:15:23;94574.72;;;2.93;89.49
20620;BME280;10469;42.720;23.252;2023-04-07T02:17:52;94553.53;;;2.86;88.95
20620;BME280;10469;42.720;23.252;2023-04-07T02:20:19;94580.94;;;3.07;87.76
20620;BME280;10469;42.720;23.252;2023-04-07T02:22:46;94579.09;;;3.14;85.98
20620;BME280;10469;42.720;23.252;2023-04-07T02:25:26;94575.25;;;3.16;86.58
20620;BME280;10469;42.720;23.252;2023-04-07T02:27:54;94572.41;;;3.18;85.94
20620;BME280;10469;42.720;23.252;2023-04-07T02:30:20;94559.34;;;3.16;85.19
20620;BME280;10469;42.720;23.252;2023-04-07T02:32:46;94577.69;;;3.18;84.69
20620;BME280;10469;42.720;23.252;2023-04-07T02:35:12;94585.81;;;3.10;88.59
20620;BME280;10469;42.720;23.252;2023-04-07T02:37:38;94570.16;;;2.73;95.88
20620;BME280;10469;42.720;23.252;2023-04-07T02:40:05;94590.03;;;2.63;100.00
20620;BME280;10469;42.720;23.252;2023-04-07T02:42:31;94574.88;;;2.43;100.00
20620;BME280;10469;42.720;23.252;2023-04-07T02:44:57;94581.34;;;2.41;100.00
20620;BME280;10469;42.720;23.252;2023-04-07T02:47:23;94586.53;;;2.21;100.00
20620;BME280;10469;42.720;23.252;2023-04-07T02:49:49;94583.56;;;2.09;100.00
20620;BME280;10469;42.720;23.252;2023-04-07T02:52:15;94575.53;;;1.96;100.00
20620;BME280;10469;42.720;23.252;2023-04-07T02:54:41;94562.19;;;2.04;100.00
20620;BME280;10469;42.720;23.252;2023-04-07T02:57:07;94578.19;;;2.24;100.00
20620;BME280;10469;42.720;23.252;2023-04-07T02:59:33;94584.53;;;2.58;100.00
20620;BME280;10469;42.720;23.252;2023-04-07T03:01:58;94588.13;;;2.78;100.00
20620;BME280;10469;42.720;23.252;2023-04-07T03:04:24;94575.97;;;2.90;95.56
20620;BME280;10469;42.720;23.252;2023-04-07T03:06:50;94558.88;;;2.99;92.19
20620;BME280;10469;42.720;23.252;2023-04-07T03:09:16;94583.41;;;3.21;89.17
20620;BME280;10469;42.720;23.252;2023-04-07T03:11:41;94586.28;;;3.26;87.59
20620;BME280;10469;42.720;23.252;2023-04-07T03:14:07;94557.53;;;3.17;87.05
20620;BME280;10469;42.720;23.252;2023-04-07T03:16:33;94576.28;;;3.22;85.70
20620;BME280;10469;42.720;23.252;2023-04-07T03:18:59;94561.38;;;3.14;85.41
20620;BME280;10469;42.720;23.252;2023-04-07T03:21:24;94573.81;;;3.14;84.68
20620;BME280;10469;42.720;23.252;2023-04-07T03:23:50;94577.66;;;3.05;85.75
20620;BME280;10469;42.720;23.252;2023-04-07T03:26:16;94578.19;;;2.93;87.07
20620;BME280;10469;42.720;23.252;2023-04-07T03:28:41;94570.22;;;2.87;86.67
20620;BME280;10469;42.720;23.252;2023-04-07T03:31:07;94562.25;;;2.80;87.08
20620;BME280;10469;42.720;23.252;2023-04-07T03:33:33;94586.28;;;2.79;88.05
20620;BME280;10469;42.720;23.252;2023-04-07T03:35:58;94567.16;;;2.83;89.07
20620;BME280;10469;42.720;23.252;2023-04-07T03:38:25;94576.34;;;2.87;89.23
20620;BME280;10469;42.720;23.252;2023-04-07T03:40:52;94562.50;;;2.92;87.75
20620;BME280;10469;42.720;23.252;2023-04-07T03:43:17;94583.31;;;3.01;87.46
20620;BME280;10469;42.720;23.252;2023-04-07T03:45:43;94575.97;;;2.97;87.57
20620;BME280;10469;42.720;23.252;2023-04-07T03:48:09;94585.59;;;3.05;87.52
20620;BME280;10469;42.720;23.252;2023-04-07T03:50:37;94591.69;;;3.05;86.88
20620;BME280;10469;42.720;23.252;2023-04-07T03:53:03;94586.03;;;3.08;87.50
20620;BME280;10469;42.720;23.252;2023-04-07T03:55:29;94574.78;;;3.06;87.47
20620;BME280;10469;42.720;23.252;2023-04-07T03:57:55;94582.56;;;3.08;87.28
20620;BME280;10469;42.720;23.252;2023-04-07T04:00:21;94588.66;;;3.08;88.00
20620;BME280;10469;42.720;23.252;2023-04-07T04:02:47;94589.28;;;3.10;87.98
20620;BME280;10469;42.720;23.252;2023-04-07T04:05:12;94587.44;;;3.04;88.38
20620;BME280;10469;42.720;23.252;2023-04-07T04:07:38;94598.88;;;3.11;87.75
20620;BME280;10469;42.720;23.252;2023-04-07T04:10:04;94596.03;;;3.13;86.74
20620;BME280;10469;42.720;23.252;2023-04-07T04:12:30;94591.97;;;3.17;85.82
20620;BME280;10469;42.720;23.252;2023-04-07T04:14:56;94610.13;;;3.26;84.89
20620;BME280;10469;42.720;23.252;2023-04-07T04:17:22;94606.78;;;2.98;86.81
20620;BME280;10469;42.720;23.252;2023-04-07T04:19:49;94588.22;;;2.98;88.49
20620;BME280;10469;42.720;23.252;2023-04-07T04:22:15;94622.06;;;2.68;100.00
20620;BME280;10469;42.720;23.252;2023-04-07T04:24:41;94605.03;;;2.21;100.00
20620;BME280;10469;42.720;23.252;2023-04-07T04:27:07;94620.81;;;2.08;100.00
20620;BME280;10469;42.720;23.252;2023-04-07T04:29:33;94623.34;;;1.94;100.00
20620;BME280;10469;42.720;23.252;2023-04-07T04:32:00;94630.41;;;1.72;100.00
20620;BME280;10469;42.720;23.252;2023-04-07T04:34:26;94629.41;;;1.52;100.00
20620;BME280;10469;42.720;23.252;2023-04-07T04:36:52;94622.78;;;1.41;100.00
20620;BME280;10469;42.720;23.252;2023-04-07T04:39:17;94633.78;;;1.09;100.00
20620;BME280;10469;42.720;23.252;2023-04-07T04:41:44;94628.47;;;1.23;100.00
20620;BME280;10469;42.720;23.252;2023-04-07T04:44:10;94635.53;;;1.38;100.00
20620;BME280;10469;42.720;23.252;2023-04-07T04:46:36;94640.34;;;1.49;100.00
20620;BME280;10469;42.720;23.252;2023-04-07T04:49:03;94635.56;;;1.59;100.00
20620;BME280;10469;42.720;23.252;2023-04-07T04:51:30;94645.00;;;1.68;100.00
20620;BME280;10469;42.720;23.252;2023-04-07T04:53:58;94642.13;;;1.85;100.00
20620;BME280;10469;42.720;23.252;2023-04-07T04:56:24;94640.63;;;1.97;100.00
20620;BME280;10469;42.720;23.252;2023-04-07T04:58:52;94645.72;;;1.98;100.00
20620;BME280;10469;42.720;23.252;2023-04-07T05:01:18;94637.97;;;1.97;100.00
20620;BME280;10469;42.720;23.252;2023-04-07T05:03:43;94650.84;;;2.00;100.00
20620;BME280;10469;42.720;23.252;2023-04-07T05:06:10;94610.38;;;1.78;100.00
20620;BME280;10469;42.720;23.252;2023-04-07T05:08:36;94601.28;;;1.87;100.00
20620;BME280;10469;42.720;23.252;2023-04-07T05:11:02;94646.69;;;2.12;100.00
20620;BME280;10469;42.720;23.252;2023-04-07T05:13:29;94610.28;;;1.93;100.00
20620;BME280;10469;42.720;23.252;2023-04-07T05:15:55;94665.50;;;2.03;100.00
20620;BME280;10469;42.720;23.252;2023-04-07T05:18:21;94580.97;;;1.88;100.00
20620;BME280;10469;42.720;23.252;2023-04-07T05:20:47;94661.06;;;2.31;100.00
20620;BME280;10469;42.720;23.252;2023-04-07T05:23:13;94576.22;;;2.05;100.00
20620;BME280;10469;42.720;23.252;2023-04-07T05:25:39;94673.94;;;2.62;100.00
20620;BME280;10469;42.720;23.252;2023-04-07T05:28:05;94643.94;;;2.27;100.00
20620;BME280;10469;42.720;23.252;2023-04-07T05:30:31;94648.09;;;2.36;100.00
20620;BME280;10469;42.720;23.252;2023-04-07T05:32:57;94651.59;;;2.71;100.00
20620;BME280;10469;42.720;23.252;2023-04-07T05:35:23;94628.69;;;2.85;100.00
20620;BME280;10469;42.720;23.252;2023-04-07T05:37:49;94599.97;;;2.54;100.00
20620;BME280;10469;42.720;23.252;2023-04-07T05:40:15;94662.53;;;3.24;100.00
20620;BME280;10469;42.720;23.252;2023-04-07T05:42:41;94601.16;;;2.80;100.00
20620;BME280;10469;42.720;23.252;2023-04-07T05:45:08;94600.63;;;2.63;100.00
20620;BME280;10469;42.720;23.252;2023-04-07T05:47:34;94639.28;;;3.26;100.00
20620;BME280;10469;42.720;23.252;2023-04-07T05:50:00;94631.25;;;3.55;100.00
20620;BME280;10469;42.720;23.252;2023-04-07T05:52:26;94659.78;;;3.46;100.00
20620;BME280;10469;42.720;23.252;2023-04-07T05:54:52;94656.88;;;2.99;100.00
20620;BME280;10469;42.720;23.252;2023-04-07T05:57:18;94653.44;;;3.53;100.00
20620;BME280;10469;42.720;23.252;2023-04-07T05:59:44;94661.53;;;3.80;100.00
20620;BME280;10469;42.720;23.252;2023-04-07T06:02:10;94654.19;;;3.89;100.00
20620;BME280;10469;42.720;23.252;2023-04-07T06:04:35;94636.69;;;4.27;100.00
20620;BME280;10469;42.720;23.252;2023-04-07T06:07:03;94656.91;;;4.82;100.00
20620;BME280;10469;42.720;23.252;2023-04-07T06:09:29;94652.41;;;4.49;100.00
20620;BME280;10469;42.720;23.252;2023-04-07T06:11:55;94649.88;;;5.20;100.00
20620;BME280;10469;42.720;23.252;2023-04-07T06:14:22;94658.66;;;5.21;100.00
20620;BME280;10469;42.720;23.252;2023-04-07T06:16:48;94661.63;;;5.51;100.00
20620;BME280;10469;42.720;23.252;2023-04-07T06:19:14;94640.09;;;6.67;100.00
20620;BME280;10469;42.720;23.252;2023-04-07T06:21:39;94647.94;;;7.06;99.68
20620;BME280;10469;42.720;23.252;2023-04-07T06:24:05;94646.03;;;6.69;94.43
20620;BME280;10469;42.720;23.252;2023-04-07T06:26:32;94647.75;;;8.41;86.31
20620;BME280;10469;42.720;23.252;2023-04-07T06:28:58;94636.38;;;10.60;73.42
20620;BME280;10469;42.720;23.252;2023-04-07T06:31:24;94636.06;;;9.88;56.03
20620;BME280;10469;42.720;23.252;2023-04-07T06:33:50;94640.97;;;10.48;54.50
20620;BME280;10469;42.720;23.252;2023-04-07T06:36:16;94571.91;;;9.64;50.54
20620;BME280;10469;42.720;23.252;2023-04-07T06:38:42;94629.13;;;8.99;51.20
20620;BME280;10469;42.720;23.252;2023-04-07T06:41:08;94606.41;;;9.77;51.38
20620;BME280;10469;42.720;23.252;2023-04-07T06:43:37;94639.22;;;9.33;50.10
20620;BME280;10469;42.720;23.252;2023-04-07T06:46:03;94637.16;;;8.04;55.39
20620;BME280;10469;42.720;23.252;2023-04-07T06:48:32;94629.66;;;8.66;55.45
20620;BME280;10469;42.720;23.252;2023-04-07T06:50:58;94640.59;;;8.65;54.44
20620;BME280;10469;42.720;23.252;2023-04-07T06:53:23;94629.09;;;8.88;53.82
20620;BME280;10469;42.720;23.252;2023-04-07T06:55:49;94659.41;;;7.98;54.97
20620;BME280;10469;42.720;23.252;2023-04-07T06:58:15;94629.81;;;7.99;54.62
20620;BME280;10469;42.720;23.252;2023-04-07T07:00:40;94650.84;;;9.50;54.22
20620;BME280;10469;42.720;23.252;2023-04-07T07:03:07;94647.22;;;8.74;52.97
20620;BME280;10469;42.720;23.252;2023-04-07T07:05:33;94626.31;;;9.18;52.91
20620;BME280;10469;42.720;23.252;2023-04-07T07:07:59;94631.13;;;8.39;52.56
20620;BME280;10469;42.720;23.252;2023-04-07T07:10:24;94644.75;;;8.49;53.07
20620;BME280;10469;42.720;23.252;2023-04-07T07:12:51;94650.31;;;8.17;54.53
20620;BME280;10469;42.720;23.252;2023-04-07T07:15:17;94670.84;;;7.87;55.91
20620;BME280;10469;42.720;23.252;2023-04-07T07:17:43;94659.03;;;7.64;55.34
20620;BME280;10469;42.720;23.252;2023-04-07T07:20:09;94656.25;;;7.71;56.10
20620;BME280;10469;42.720;23.252;2023-04-07T07:22:35;94651.50;;;7.54;56.29
20620;BME280;10469;42.720;23.252;2023-04-07T07:25:01;94666.94;;;8.49;55.20
20620;BME280;10469;42.720;23.252;2023-04-07T07:27:27;94663.03;;;8.64;55.38
20620;BME280;10469;42.720;23.252;2023-04-07T07:29:53;94650.63;;;8.93;53.19
20620;BME280;10469;42.720;23.252;2023-04-07T07:32:19;94666.44;;;9.29;51.74
20620;BME280;10469;42.720;23.252;2023-04-07T07:34:54;94661.78;;;9.37;50.87
20620;BME280;10469;42.720;23.252;2023-04-07T07:37:20;94603.94;;;8.00;52.88
20620;BME280;10469;42.720;23.252;2023-04-07T07:39:45;94650.88;;;9.03;54.33
20620;BME280;10469;42.720;23.252;2023-04-07T07:42:11;94669.47;;;9.33;52.31
20620;BME280;10469;42.720;23.252;2023-04-07T07:44:37;94679.41;;;9.85;50.50
20620;BME280;10469;42.720;23.252;2023-04-07T07:47:03;94663.88;;;9.35;50.48
20620;BME280;10469;42.720;23.252;2023-04-07T07:49:28;94664.09;;;8.74;51.23
20620;BME280;10469;42.720;23.252;2023-04-07T07:51:58;94653.19;;;8.99;52.88
20620;BME280;10469;42.720;23.252;2023-04-07T07:54:24;94656.59;;;9.82;50.15
20620;BME280;10469;42.720;23.252;2023-04-07T07:56:50;94671.66;;;10.00;49.46
20620;BME280;10469;42.720;23.252;2023-04-07T07:59:16;94678.78;;;9.07;51.17
20620;BME280;10469;42.720;23.252;2023-04-07T08:01:42;94674.25;;;8.54;51.74
20620;BME280;10469;42.720;23.252;2023-04-07T08:04:08;94649.13;;;8.85;51.19
20620;BME280;10469;42.720;23.252;2023-04-07T08:06:33;94679.00;;;8.94;51.50
20620;BME280;10469;42.720;23.252;2023-04-07T08:09:00;94687.03;;;9.05;51.49
20620;BME280;10469;42.720;23.252;2023-04-07T08:11:26;94637.72;;;8.90;51.75
20620;BME280;10469;42.720;23.252;2023-04-07T08:13:55;94645.03;;;8.83;51.07
20620;BME280;10469;42.720;23.252;2023-04-07T08:16:21;94655.16;;;9.39;50.55
20620;BME280;10469;42.720;23.252;2023-04-07T08:18:48;94675.09;;;9.84;51.49
20620;BME280;10469;42.720;23.252;2023-04-07T08:21:14;94629.28;;;9.68;50.35
20620;BME280;10469;42.720;23.252;2023-04-07T08:23:40;94639.09;;;9.51;50.77
20620;BME280;10469;42.720;23.252;2023-04-07T08:26:06;94680.28;;;9.03;50.83
20620;BME280;10469;42.720;23.252;2023-04-07T08:28:32;94636.81;;;10.40;50.06
20620;BME280;10469;42.720;23.252;2023-04-07T08:30:59;94688.13;;;10.61;48.50
20620;BME280;10469;42.720;23.252;2023-04-07T08:33:25;94676.31;;;9.64;50.72
20620;BME280;10469;42.720;23.252;2023-04-07T08:35:51;94681.25;;;10.82;47.84
20620;BME280;10469;42.720;23.252;2023-04-07T08:38:17;94676.81;;;11.81;45.42
20620;BME280;10469;42.720;23.252;2023-04-07T08:40:43;94669.47;;;11.16;45.29
20620;BME280;10469;42.720;23.252;2023-04-07T08:43:09;94672.22;;;10.88;46.54
20620;BME280;10469;42.720;23.252;2023-04-07T08:45:38;94684.31;;;10.73;48.70
20620;BME280;10469;42.720;23.252;2023-04-07T08:48:14;94688.31;;;11.38;46.63
20620;BME280;10469;42.720;23.252;2023-04-07T08:50:43;94670.09;;;9.75;48.95
20620;BME280;10469;42.720;23.252;2023-04-07T08:53:12;94689.44;;;9.77;49.16
20620;BME280;10469;42.720;23.252;2023-04-07T08:55:40;94677.22;;;9.70;49.73
20620;BME280;10469;42.720;23.252;2023-04-07T08:58:08;94687.00;;;10.16;49.06
20620;BME280;10469;42.720;23.252;2023-04-07T09:00:40;94665.09;;;11.66;46.25
20620;BME280;10469;42.720;23.252;2023-04-07T09:03:07;94681.63;;;11.58;45.64
20620;BME280;10469;42.720;23.252;2023-04-07T09:05:34;94670.63;;;13.01;44.60
20620;BME280;10469;42.720;23.252;2023-04-07T09:08:03;94676.47;;;12.93;43.35
20620;BME280;10469;42.720;23.252;2023-04-07T09:10:29;94674.81;;;11.89;44.86
20620;BME280;10469;42.720;23.252;2023-04-07T09:12:59;94640.75;;;11.00;46.05
20620;BME280;10469;42.720;23.252;2023-04-07T09:15:29;94609.16;;;10.85;47.40
20620;BME280;10469;42.720;23.252;2023-04-07T09:17:57;94688.44;;;10.64;48.71
20620;BME280;10469;42.720;23.252;2023-04-07T09:20:25;94615.34;;;10.23;48.94
20620;BME280;10469;42.720;23.252;2023-04-07T09:22:51;94623.88;;;9.16;49.81
20620;BME280;10469;42.720;23.252;2023-04-07T09:25:22;94696.41;;;9.78;50.81
20620;BME280;10469;42.720;23.252;2023-04-07T09:27:56;94620.25;;;9.11;51.08
20620;BME280;10469;42.720;23.252;2023-04-07T09:30:22;94689.59;;;10.11;49.27
20620;BME280;10469;42.720;23.252;2023-04-07T09:32:49;94632.81;;;10.14;48.86
20620;BME280;10469;42.720;23.252;2023-04-07T09:35:15;94638.47;;;11.25;46.20
20620;BME280;10469;42.720;23.252;2023-04-07T09:38:00;94645.69;;;10.41;46.14
20620;BME280;10469;42.720;23.252;2023-04-07T09:40:27;94657.47;;;9.59;47.59
20620;BME280;10469;42.720;23.252;2023-04-07T09:42:53;94670.97;;;9.17;49.94
20620;BME280;10469;42.720;23.252;2023-04-07T09:45:29;94619.34;;;8.82;51.30
20620;BME280;10469;42.720;23.252;2023-04-07T09:47:56;94640.69;;;9.52;50.98
20620;BME280;10469;42.720;23.252;2023-04-07T09:50:34;94668.31;;;8.94;52.76
20620;BME280;10469;42.720;23.252;2023-04-07T09:53:01;94665.28;;;8.18;54.20
20620;BME280;10469;42.720;23.252;2023-04-07T09:55:28;94656.22;;;7.89;55.58
20620;BME280;10469;42.720;23.252;2023-04-07T09:57:55;94647.00;;;7.73;56.81
20620;BME280;10469;42.720;23.252;2023-04-07T10:00:21;94611.78;;;7.46;57.80
20620;BME280;10469;42.720;23.252;2023-04-07T10:02:47;94670.38;;;7.90;58.88
20620;BME280;10469;42.720;23.252;2023-04-07T10:05:15;94675.34;;;8.65;58.08
20620;BME280;10469;42.720;23.252;2023-04-07T10:07:42;94644.44;;;8.80;55.75
20620;BME280;10469;42.720;23.252;2023-04-07T10:10:10;94711.63;;;8.72;55.87
20620;BME280;10469;42.720;23.252;2023-04-07T10:12:39;94661.13;;;8.22;57.32
20620;BME280;10469;42.720;23.252;2023-04-07T10:15:14;94605.63;;;7.94;56.75
20620;BME280;10469;42.720;23.252;2023-04-07T10:17:46;94700.25;;;8.89;57.97
20620;BME280;10469;42.720;23.252;2023-04-07T10:20:17;94617.16;;;8.90;56.77
20620;BME280;10469;42.720;23.252;2023-04-07T10:22:50;94706.66;;;8.27;59.19
20620;BME280;10469;42.720;23.252;2023-04-07T10:25:23;94648.25;;;6.91;61.87
20620;BME280;10469;42.720;23.252;2023-04-07T10:28:14;94693.22;;;7.86;63.72
20620;BME280;10469;42.720;23.252;2023-04-07T10:30:41;94711.00;;;7.37;63.63
20620;BME280;10469;42.720;23.252;2023-04-07T10:33:07;94678.34;;;7.60;64.88
20620;BME280;10469;42.720;23.252;2023-04-07T10:36:04;94710.03;;;8.23;63.57
20620;BME280;10469;42.720;23.252;2023-04-07T10:38:34;94664.41;;;7.58;63.84
20620;BME280;10469;42.720;23.252;2023-04-07T10:41:31;94719.88;;;8.41;62.62
20620;BME280;10469;42.720;23.252;2023-04-07T10:44:08;94708.09;;;7.82;65.17
20620;BME280;10469;42.720;23.252;2023-04-07T10:49:10;94635.22;;;7.26;68.41
20620;BME280;10469;42.720;23.252;2023-04-07T10:51:38;94667.97;;;7.33;70.32
20620;BME280;10469;42.720;23.252;2023-04-07T10:54:17;94710.97;;;7.43;68.67
20620;BME280;10469;42.720;23.252;2023-04-07T10:57:13;94718.41;;;8.26;68.44
20620;BME280;10469;42.720;23.252;2023-04-07T11:04:54;94726.22;;;8.10;69.75
20620;BME280;10469;42.720;23.252;2023-04-07T11:07:43;94723.47;;;7.98;70.00
20620;BME280;10469;42.720;23.252;2023-04-07T11:10:13;94716.06;;;7.63;70.70
20620;BME280;10469;42.720;23.252;2023-04-07T11:12:43;94722.59;;;7.67;70.15
20620;BME280;10469;42.720;23.252;2023-04-07T11:15:21;94697.13;;;8.38;68.73
20620;BME280;10469;42.720;23.252;2023-04-07T11:18:07;94717.91;;;8.78;66.89
20620;BME280;10469;42.720;23.252;2023-04-07T11:20:54;94714.31;;;8.72;65.17
20620;BME280;10469;42.720;23.252;2023-04-07T11:23:42;94692.09;;;8.42;66.46
20620;BME280;10469;42.720;23.252;2023-04-07T11:26:09;94714.25;;;8.30;66.12
20620;BME280;10469;42.720;23.252;2023-04-07T11:28:51;94727.63;;;7.94;68.38
20620;BME280;10469;42.720;23.252;2023-04-07T11:31:29;94715.84;;;8.50;68.13
20620;BME280;10469;42.720;23.252;2023-04-07T11:34:00;94719.13;;;9.17;67.57
20620;BME280;10469;42.720;23.252;2023-04-07T11:36:28;94723.44;;;9.30;67.88
20620;BME280;10469;42.720;23.252;2023-04-07T11:38:55;94724.25;;;9.19;66.37
20620;BME280;10469;42.720;23.252;2023-04-07T11:41:29;94678.66;;;9.14;65.73
20620;BME280;10469;42.720;23.252;2023-04-07T11:44:10;94714.06;;;10.03;64.23
20620;BME280;10469;42.720;23.252;2023-04-07T11:49:22;94723.91;;;10.26;61.98
20620;BME280;10469;42.720;23.252;2023-04-07T11:52:02;94733.47;;;8.69;66.17
20620;BME280;10469;42.720;23.252;2023-04-07T11:54:45;94719.91;;;7.86;68.79
20620;BME280;10469;42.720;23.252;2023-04-07T11:57:28;94706.38;;;8.66;69.50
20620;BME280;10469;42.720;23.252;2023-04-07T12:00:13;94724.59;;;9.11;66.99
20620;BME280;10469;42.720;23.252;2023-04-07T12:02:41;94720.41;;;9.03;65.77
20620;BME280;10469;42.720;23.252;2023-04-07T12:05:07;94698.44;;;9.48;64.62
20620;BME280;10469;42.720;23.252;2023-04-07T12:07:36;94697.03;;;9.57;64.55
20620;BME280;10469;42.720;23.252;2023-04-07T12:10:23;94712.19;;;10.15;62.03
20620;BME280;10469;42.720;23.252;2023-04-07T12:12:52;94724.84;;;9.68;62.99
20620;BME280;10469;42.720;23.252;2023-04-07T12:15:18;94692.00;;;8.78;65.04
20620;BME280;10469;42.720;23.252;2023-04-07T12:17:46;94723.66;;;9.05;65.97
20620;BME280;10469;42.720;23.252;2023-04-07T13:28:50;94706.16;;;7.70;75.61
20620;BME280;10469;42.720;23.252;2023-04-07T13:31:15;94724.47;;;8.03;75.21
20620;BME280;10469;42.720;23.252;2023-04-07T13:33:42;94735.34;;;8.20;75.39
20620;BME280;10469;42.720;23.252;2023-04-07T13:36:09;94715.66;;;8.15;75.27
20620;BME280;10469;42.720;23.252;2023-04-07T13:38:34;94729.50;;;7.93;76.67
20620;BME280;10469;42.720;23.252;2023-04-07T13:41:02;94731.31;;;8.11;78.02
20620;BME280;10469;42.720;23.252;2023-04-07T13:43:28;94736.66;;;8.11;77.40
20620;BME280;10469;42.720;23.252;2023-04-07T13:45:54;94726.22;;;8.10;77.85
20620;BME280;10469;42.720;23.252;2023-04-07T13:48:21;94741.44;;;8.09;78.68
20620;BME280;10469;42.720;23.252;2023-04-07T13:50:47;94666.84;;;7.59;78.61
20620;BME280;10469;42.720;23.252;2023-04-07T13:53:12;94750.84;;;8.30;79.35
20620;BME280;10469;42.720;23.252;2023-04-07T13:55:39;94732.63;;;7.90;81.79
20620;BME280;10469;42.720;23.252;2023-04-07T13:58:05;94761.81;;;7.48;83.78
20620;BME280;10469;42.720;23.252;2023-04-07T14:00:31;94740.38;;;7.55;84.07
20620;BME280;10469;42.720;23.252;2023-04-07T14:03:00;94760.94;;;7.73;84.49
20620;BME280;10469;42.720;23.252;2023-04-07T14:05:26;94763.00;;;7.89;87.36
20620;BME280;10469;42.720;23.252;2023-04-07T14:07:52;94755.59;;;8.10;84.18
20620;BME280;10469;42.720;23.252;2023-04-07T14:10:18;94765.81;;;7.58;86.60
20620;BME280;10469;42.720;23.252;2023-04-07T14:12:45;94774.66;;;7.76;87.23
20620;BME280;10469;42.720;23.252;2023-04-07T14:15:11;94747.06;;;8.01;85.56
20620;BME280;10469;42.720;23.252;2023-04-07T14:17:37;94772.72;;;7.84;87.67
20620;BME280;10469;42.720;23.252;2023-04-07T14:20:06;94779.13;;;7.83;88.28
20620;BME280;10469;42.720;23.252;2023-04-07T14:22:36;94789.78;;;8.01;88.70
20620;BME280;10469;42.720;23.252;2023-04-07T14:25:02;94728.16;;;7.47;88.99
20620;BME280;10469;42.720;23.252;2023-04-07T14:27:29;94769.16;;;7.71;92.13